sensor_id;sensor_type;location;lat;lon;timestamp;P1;durP1;ratioP1;P2;durP2;ratioP2
4508;SDS011;2267;48.816;9.230;2023-11-18T02:04:09;4.90;;;4.50;;
4508;SDS011;2267;48.816;9.230;2023-11-18T02:06:37;5.60;;;5.20;;
4508;SDS011;2267;48.816;9.230;2023-11-18T02:09:04;4.67;;;4.37;;
4508;SDS011;2267;48.816;9.230;2023-11-18T08:45:18;5.50;;;5.00;;
4508;SDS011;2267;48.816;9.230;2023-11-18T08:48:00;6.17;;;5.57;;
4508;SDS011;2267;48.816;9.230;2023-11-18T08:50:28;5.80;;;5.30;;
4508;SDS011;2267;48.816;9.230;2023-11-18T08:52:55;6.17;;;4.97;;
4508;SDS011;2267;48.816;9.230;2023-11-18T08:55:29;4.67;;;4.27;;
4508;SDS011;2267;48.816;9.230;2023-11-18T08:58:09;4.53;;;4.13;;
4508;SDS011;2267;48.816;9.230;2023-11-18T09:00:55;4.70;;;4.40;;
4508;SDS011;2267;48.816;9.230;2023-11-18T09:03:40;5.60;;;5.10;;
4508;SDS011;2267;48.816;9.230;2023-11-18T09:06:15;5.10;;;4.60;;
4508;SDS011;2267;48.816;9.230;2023-11-18T09:08:51;6.03;;;5.13;;
4508;SDS011;2267;48.816;9.230;2023-11-18T09:11:20;5.03;;;4.63;;
4508;SDS011;2267;48.816;9.230;2023-11-18T09:13:49;4.23;;;3.93;;
4508;SDS011;2267;48.816;9.230;2023-11-18T09:16:21;4.47;;;4.07;;
4508;SDS011;2267;48.816;9.230;2023-11-18T09:18:49;5.73;;;4.07;;
4508;SDS011;2267;48.816;9.230;2023-11-18T09:21:17;5.57;;;3.80;;
4508;SDS011;2267;48.816;9.230;2023-11-18T09:23:51;3.93;;;3.63;;
4508;SDS011;2267;48.816;9.230;2023-11-18T09:26:18;4.40;;;4.00;;
4508;SDS011;2267;48.816;9.230;2023-11-18T09:28:47;4.20;;;3.80;;
4508;SDS011;2267;48.816;9.230;2023-11-18T09:31:16;4.50;;;4.20;;
4508;SDS011;2267;48.816;9.230;2023-11-18T09:33:43;4.60;;;4.00;;
4508;SDS011;2267;48.816;9.230;2023-11-18T09:36:19;4.17;;;3.80;;
4508;SDS011;2267;48.816;9.230;2023-11-18T09:38:46;5.20;;;4.07;;
4508;SDS011;2267;48.816;9.230;2023-11-18T09:41:15;4.00;;;3.63;;
4508;SDS011;2267;48.816;9.230;2023-11-18T09:43:43;3.60;;;3.30;;
4508;SDS011;2267;48.816;9.230;2023-11-18T09:46:15;4.17;;;3.77;;
4508;SDS011;2267;48.816;9.230;2023-11-18T09:48:46;4.70;;;3.50;;
4508;SDS011;2267;48.816;9.230;2023-11-18T09:53:49;3.03;;;2.73;;
4508;SDS011;2267;48.816;9.230;2023-11-18T09:59:17;3.93;;;3.53;;
4508;SDS011;2267;48.816;9.230;2023-11-18T10:01:51;4.27;;;3.60;;
4508;SDS011;2267;48.816;9.230;2023-11-18T10:04:23;4.00;;;3.70;;
4508;SDS011;2267;48.816;9.230;2023-11-18T10:06:54;4.60;;;3.37;;
4508;SDS011;2267;48.816;9.230;2023-11-18T10:09:23;3.07;;;2.60;;
4508;SDS011;2267;48.816;9.230;2023-11-18T10:12:03;3.40;;;3.10;;
4508;SDS011;2267;48.816;9.230;2023-11-18T10:14:34;3.40;;;3.10;;
4508;SDS011;2267;48.816;9.230;2023-11-18T10:17:07;3.97;;;3.67;;
4508;SDS011;2267;48.816;9.230;2023-11-18T10:19:53;2.97;;;2.77;;
4508;SDS011;2267;48.816;9.230;2023-11-18T10:22:27;3.63;;;3.33;;
4508;SDS011;2267;48.816;9.230;2023-11-18T10:24:56;2.93;;;2.63;;
4508;SDS011;2267;48.816;9.230;2023-11-18T10:27:23;3.90;;;3.57;;
4508;SDS011;2267;48.816;9.230;2023-11-18T10:32:24;4.03;;;3.10;;
4508;SDS011;2267;48.816;9.230;2023-11-18T10:34:58;4.10;;;3.10;;
4508;SDS011;2267;48.816;9.230;2023-11-18T10:37:25;4.60;;;3.07;;
4508;SDS011;2267;48.816;9.230;2023-11-18T10:39:57;2.60;;;2.40;;
4508;SDS011;2267;48.816;9.230;2023-11-18T10:42:30;3.23;;;2.63;;
4508;SDS011;2267;48.816;9.230;2023-11-18T10:44:59;3.50;;;3.20;;
4508;SDS011;2267;48.816;9.230;2023-11-18T10:47:33;3.80;;;3.00;;
4508;SDS011;2267;48.816;9.230;2023-11-18T10:50:05;3.20;;;2.90;;
4508;SDS011;2267;48.816;9.230;2023-11-18T10:52:36;3.00;;;2.40;;
4508;SDS011;2267;48.816;9.230;2023-11-18T10:55:06;3.90;;;2.90;;
4508;SDS011;2267;48.816;9.230;2023-11-18T10:57:39;3.40;;;2.90;;
4508;SDS011;2267;48.816;9.230;2023-11-18T11:00:09;3.50;;;3.20;;
4508;SDS011;2267;48.816;9.230;2023-11-18T11:02:40;4.60;;;3.60;;
4508;SDS011;2267;48.816;9.230;2023-11-18T11:05:08;4.23;;;2.70;;
4508;SDS011;2267;48.816;9.230;2023-11-18T11:07:47;2.90;;;2.70;;
4508;SDS011;2267;48.816;9.230;2023-11-18T11:10:15;4.90;;;3.30;;
4508;SDS011;2267;48.816;9.230;2023-11-18T11:12:46;3.33;;;3.00;;
4508;SDS011;2267;48.816;9.230;2023-11-18T11:15:22;4.00;;;3.17;;
4508;SDS011;2267;48.816;9.230;2023-11-18T11:17:57;3.43;;;2.60;;
4508;SDS011;2267;48.816;9.230;2023-11-18T11:20:42;4.33;;;2.33;;
4508;SDS011;2267;48.816;9.230;2023-11-18T11:23:20;3.10;;;2.60;;
4508;SDS011;2267;48.816;9.230;2023-11-18T11:26:07;4.30;;;2.53;;
4508;SDS011;2267;48.816;9.230;2023-11-18T11:31:55;3.20;;;2.30;;
4508;SDS011;2267;48.816;9.230;2023-11-18T11:34:33;3.47;;;2.50;;
4508;SDS011;2267;48.816;9.230;2023-11-18T11:37:03;3.30;;;2.47;;
4508;SDS011;2267;48.816;9.230;2023-11-18T11:39:32;3.00;;;2.70;;
4508;SDS011;2267;48.816;9.230;2023-11-18T11:42:02;2.40;;;2.20;;
4508;SDS011;2267;48.816;9.230;2023-11-18T11:44:35;2.73;;;2.43;;
4508;SDS011;2267;48.816;9.230;2023-11-18T11:47:08;2.53;;;2.33;;
4508;SDS011;2267;48.816;9.230;2023-11-18T11:49:47;3.00;;;2.70;;
4508;SDS011;2267;48.816;9.230;2023-11-18T11:52:27;2.77;;;2.37;;
4508;SDS011;2267;48.816;9.230;2023-11-18T11:55:09;2.70;;;2.50;;
4508;SDS011;2267;48.816;9.230;2023-11-18T11:57:41;2.37;;;1.93;;
4508;SDS011;2267;48.816;9.230;2023-11-18T12:00:09;4.60;;;2.20;;
4508;SDS011;2267;48.816;9.230;2023-11-18T12:02:49;3.10;;;2.20;;
4508;SDS011;2267;48.816;9.230;2023-11-18T12:05:30;3.00;;;2.80;;
4508;SDS011;2267;48.816;9.230;2023-11-18T12:08:00;3.23;;;2.93;;
4508;SDS011;2267;48.816;9.230;2023-11-18T12:10:27;3.90;;;3.60;;
4508;SDS011;2267;48.816;9.230;2023-11-18T12:13:10;4.97;;;4.47;;
4508;SDS011;2267;48.816;9.230;2023-11-18T12:15:53;4.20;;;3.87;;
4508;SDS011;2267;48.816;9.230;2023-11-18T12:18:23;2.97;;;2.60;;
4508;SDS011;2267;48.816;9.230;2023-11-18T12:20:51;2.53;;;2.33;;
4508;SDS011;2267;48.816;9.230;2023-11-18T12:23:21;4.10;;;2.90;;
4508;SDS011;2267;48.816;9.230;2023-11-18T12:25:52;3.53;;;2.90;;
4508;SDS011;2267;48.816;9.230;2023-11-18T12:28:24;3.30;;;2.70;;
4508;SDS011;2267;48.816;9.230;2023-11-18T12:30:56;3.10;;;2.80;;
4508;SDS011;2267;48.816;9.230;2023-11-18T12:33:24;2.83;;;2.60;;
4508;SDS011;2267;48.816;9.230;2023-11-18T12:41:01;3.60;;;2.97;;
4508;SDS011;2267;48.816;9.230;2023-11-18T12:43:54;2.70;;;2.40;;
4508;SDS011;2267;48.816;9.230;2023-11-18T12:49:22;3.73;;;2.60;;
4508;SDS011;2267;48.816;9.230;2023-11-18T12:51:51;3.03;;;2.27;;
4508;SDS011;2267;48.816;9.230;2023-11-18T12:54:19;3.90;;;2.23;;
4508;SDS011;2267;48.816;9.230;2023-11-18T12:56:50;2.97;;;2.37;;
4508;SDS011;2267;48.816;9.230;2023-11-18T12:59:20;2.57;;;2.10;;
4508;SDS011;2267;48.816;9.230;2023-11-18T13:01:47;3.07;;;2.37;;
4508;SDS011;2267;48.816;9.230;2023-11-18T13:04:23;4.73;;;2.50;;
4508;SDS011;2267;48.816;9.230;2023-11-18T13:06:50;2.80;;;2.03;;
4508;SDS011;2267;48.816;9.230;2023-11-18T13:09:18;4.20;;;2.10;;
4508;SDS011;2267;48.816;9.230;2023-11-18T13:11:58;2.30;;;2.10;;
4508;SDS011;2267;48.816;9.230;2023-11-18T13:14:33;4.07;;;2.27;;
4508;SDS011;2267;48.816;9.230;2023-11-18T13:17:03;4.87;;;2.77;;
4508;SDS011;2267;48.816;9.230;2023-11-18T13:19:35;2.50;;;2.27;;
4508;SDS011;2267;48.816;9.230;2023-11-18T13:22:02;2.90;;;2.43;;
4508;SDS011;2267;48.816;9.230;2023-11-18T13:24:33;5.07;;;2.20;;
4508;SDS011;2267;48.816;9.230;2023-11-18T13:27:13;2.97;;;1.97;;
4508;SDS011;2267;48.816;9.230;2023-11-18T13:29:46;3.00;;;2.50;;
4508;SDS011;2267;48.816;9.230;2023-11-18T13:32:19;3.90;;;2.07;;
4508;SDS011;2267;48.816;9.230;2023-11-18T13:34:52;3.03;;;2.10;;
4508;SDS011;2267;48.816;9.230;2023-11-18T13:37:19;3.70;;;2.47;;
4508;SDS011;2267;48.816;9.230;2023-11-18T13:39:55;2.97;;;2.60;;
4508;SDS011;2267;48.816;9.230;2023-11-18T13:42:23;5.00;;;3.30;;
4508;SDS011;2267;48.816;9.230;2023-11-18T13:45:03;3.23;;;2.93;;
4508;SDS011;2267;48.816;9.230;2023-11-18T13:47:34;3.73;;;3.00;;
4508;SDS011;2267;48.816;9.230;2023-11-18T13:50:06;3.80;;;3.50;;
4508;SDS011;2267;48.816;9.230;2023-11-18T13:52:34;3.57;;;3.03;;
4508;SDS011;2267;48.816;9.230;2023-11-18T13:55:05;3.60;;;3.30;;
4508;SDS011;2267;48.816;9.230;2023-11-18T13:57:33;4.33;;;3.93;;
4508;SDS011;2267;48.816;9.230;2023-11-18T14:00:04;4.70;;;4.00;;
4508;SDS011;2267;48.816;9.230;2023-11-18T14:02:33;5.00;;;4.17;;
4508;SDS011;2267;48.816;9.230;2023-11-18T14:05:02;4.30;;;3.90;;
4508;SDS011;2267;48.816;9.230;2023-11-18T14:07:31;6.67;;;4.70;;
4508;SDS011;2267;48.816;9.230;2023-11-18T14:10:05;5.50;;;4.20;;
4508;SDS011;2267;48.816;9.230;2023-11-18T14:12:34;4.90;;;4.40;;
4508;SDS011;2267;48.816;9.230;2023-11-18T14:15:01;5.80;;;5.00;;
4508;SDS011;2267;48.816;9.230;2023-11-18T14:17:29;5.57;;;4.20;;
4508;SDS011;2267;48.816;9.230;2023-11-18T14:19:57;4.40;;;3.80;;
4508;SDS011;2267;48.816;9.230;2023-11-18T14:22:24;5.00;;;4.60;;
4508;SDS011;2267;48.816;9.230;2023-11-18T14:24:51;5.20;;;4.20;;
4508;SDS011;2267;48.816;9.230;2023-11-18T14:27:20;4.07;;;3.77;;
4508;SDS011;2267;48.816;9.230;2023-11-18T14:29:47;3.60;;;3.30;;
4508;SDS011;2267;48.816;9.230;2023-11-18T14:32:13;3.67;;;2.70;;
4508;SDS011;2267;48.816;9.230;2023-11-18T14:34:41;4.67;;;4.07;;
4508;SDS011;2267;48.816;9.230;2023-11-18T14:37:08;6.20;;;3.93;;
4508;SDS011;2267;48.816;9.230;2023-11-18T14:39:35;4.87;;;3.70;;
4508;SDS011;2267;48.816;9.230;2023-11-18T14:42:03;4.50;;;3.87;;
4508;SDS011;2267;48.816;9.230;2023-11-18T14:44:31;4.00;;;3.60;;
4508;SDS011;2267;48.816;9.230;2023-11-18T14:46:58;4.33;;;3.70;;
4508;SDS011;2267;48.816;9.230;2023-11-18T14:49:26;4.73;;;4.20;;
4508;SDS011;2267;48.816;9.230;2023-11-18T14:51:53;6.53;;;4.30;;
4508;SDS011;2267;48.816;9.230;2023-11-18T14:54:20;4.97;;;4.40;;
4508;SDS011;2267;48.816;9.230;2023-11-18T14:56:47;4.77;;;4.30;;
4508;SDS011;2267;48.816;9.230;2023-11-18T14:59:15;5.57;;;4.97;;
4508;SDS011;2267;48.816;9.230;2023-11-18T15:01:42;4.97;;;4.47;;
4508;SDS011;2267;48.816;9.230;2023-11-18T15:04:10;4.97;;;4.17;;
4508;SDS011;2267;48.816;9.230;2023-11-18T15:06:38;5.07;;;4.57;;
4508;SDS011;2267;48.816;9.230;2023-11-18T15:09:06;5.17;;;4.43;;
4508;SDS011;2267;48.816;9.230;2023-11-18T15:11:37;4.33;;;4.00;;
4508;SDS011;2267;48.816;9.230;2023-11-18T15:14:04;4.67;;;4.27;;
4508;SDS011;2267;48.816;9.230;2023-11-18T15:16:31;4.17;;;3.77;;
4508;SDS011;2267;48.816;9.230;2023-11-18T15:18:58;5.43;;;4.93;;
4508;SDS011;2267;48.816;9.230;2023-11-18T15:21:24;4.10;;;3.70;;
4508;SDS011;2267;48.816;9.230;2023-11-18T15:23:51;5.00;;;4.17;;
4508;SDS011;2267;48.816;9.230;2023-11-18T15:26:19;4.87;;;4.47;;
4508;SDS011;2267;48.816;9.230;2023-11-18T15:28:45;5.33;;;4.67;;
4508;SDS011;2267;48.816;9.230;2023-11-18T15:31:12;4.43;;;4.03;;
4508;SDS011;2267;48.816;9.230;2023-11-18T15:33:40;5.23;;;4.17;;
4508;SDS011;2267;48.816;9.230;2023-11-18T15:36:12;4.50;;;4.10;;
4508;SDS011;2267;48.816;9.230;2023-11-18T15:38:38;4.90;;;4.40;;
4508;SDS011;2267;48.816;9.230;2023-11-18T15:41:05;5.20;;;4.70;;
4508;SDS011;2267;48.816;9.230;2023-11-18T15:43:32;4.10;;;3.80;;
4508;SDS011;2267;48.816;9.230;2023-11-18T15:45:59;4.30;;;3.90;;
4508;SDS011;2267;48.816;9.230;2023-11-18T15:48:26;4.90;;;4.40;;
4508;SDS011;2267;48.816;9.230;2023-11-18T15:50:53;4.17;;;3.83;;
4508;SDS011;2267;48.816;9.230;2023-11-18T15:53:25;4.60;;;4.20;;
4508;SDS011;2267;48.816;9.230;2023-11-18T15:55:54;4.30;;;4.00;;
4508;SDS011;2267;48.816;9.230;2023-11-18T15:58:21;4.30;;;3.90;;
4508;SDS011;2267;48.816;9.230;2023-11-18T16:00:52;4.80;;;3.70;;
4508;SDS011;2267;48.816;9.230;2023-11-18T16:03:19;4.33;;;3.97;;
4508;SDS011;2267;48.816;9.230;2023-11-18T16:05:46;4.30;;;3.83;;
4508;SDS011;2267;48.816;9.230;2023-11-18T16:08:13;6.57;;;4.40;;
4508;SDS011;2267;48.816;9.230;2023-11-18T16:10:40;6.33;;;5.73;;
4508;SDS011;2267;48.816;9.230;2023-11-18T16:13:08;7.57;;;6.87;;
4508;SDS011;2267;48.816;9.230;2023-11-18T16:15:35;6.30;;;5.80;;
4508;SDS011;2267;48.816;9.230;2023-11-18T16:18:02;5.77;;;5.27;;
4508;SDS011;2267;48.816;9.230;2023-11-18T16:20:30;6.60;;;6.10;;
4508;SDS011;2267;48.816;9.230;2023-11-18T16:23:01;4.50;;;3.93;;
4508;SDS011;2267;48.816;9.230;2023-11-18T16:25:29;4.90;;;4.50;;
4508;SDS011;2267;48.816;9.230;2023-11-18T16:27:57;3.90;;;3.50;;
4508;SDS011;2267;48.816;9.230;2023-11-18T16:30:26;4.73;;;3.40;;
4508;SDS011;2267;48.816;9.230;2023-11-18T16:32:57;4.53;;;3.43;;
4508;SDS011;2267;48.816;9.230;2023-11-18T16:35:27;4.50;;;4.10;;
4508;SDS011;2267;48.816;9.230;2023-11-18T16:37:56;3.93;;;3.63;;
4508;SDS011;2267;48.816;9.230;2023-11-18T16:40:23;3.70;;;3.40;;
4508;SDS011;2267;48.816;9.230;2023-11-18T16:42:51;4.20;;;3.80;;
4508;SDS011;2267;48.816;9.230;2023-11-18T16:45:22;4.33;;;3.63;;
4508;SDS011;2267;48.816;9.230;2023-11-18T16:47:51;3.83;;;3.53;;
4508;SDS011;2267;48.816;9.230;2023-11-18T16:50:20;4.07;;;3.77;;
4508;SDS011;2267;48.816;9.230;2023-11-18T16:52:50;3.47;;;3.17;;
4508;SDS011;2267;48.816;9.230;2023-11-18T16:55:17;4.27;;;3.87;;
4508;SDS011;2267;48.816;9.230;2023-11-18T16:57:44;4.40;;;3.80;;
4508;SDS011;2267;48.816;9.230;2023-11-18T17:00:13;4.33;;;3.93;;
4508;SDS011;2267;48.816;9.230;2023-11-18T17:02:46;5.03;;;3.50;;
4508;SDS011;2267;48.816;9.230;2023-11-18T17:05:17;3.70;;;3.17;;
4508;SDS011;2267;48.816;9.230;2023-11-18T17:07:44;3.37;;;3.07;;
4508;SDS011;2267;48.816;9.230;2023-11-18T17:10:12;4.63;;;3.87;;
4508;SDS011;2267;48.816;9.230;2023-11-18T17:12:39;4.87;;;3.60;;
4508;SDS011;2267;48.816;9.230;2023-11-18T17:15:07;4.80;;;4.30;;
4508;SDS011;2267;48.816;9.230;2023-11-18T17:17:40;3.93;;;3.53;;
4508;SDS011;2267;48.816;9.230;2023-11-18T17:20:09;4.43;;;4.03;;
4508;SDS011;2267;48.816;9.230;2023-11-18T17:22:41;4.37;;;4.00;;
4508;SDS011;2267;48.816;9.230;2023-11-18T17:25:09;6.83;;;6.23;;
4508;SDS011;2267;48.816;9.230;2023-11-18T17:27:40;4.47;;;4.03;;
4508;SDS011;2267;48.816;9.230;2023-11-18T17:30:07;7.57;;;6.87;;
4508;SDS011;2267;48.816;9.230;2023-11-18T17:32:39;22.90;;;7.80;;
4508;SDS011;2267;48.816;9.230;2023-11-18T17:35:09;4.37;;;3.97;;
4508;SDS011;2267;48.816;9.230;2023-11-18T17:37:36;3.30;;;3.00;;
4508;SDS011;2267;48.816;9.230;2023-11-18T17:40:03;8.03;;;4.40;;
4508;SDS011;2267;48.816;9.230;2023-11-18T17:42:31;3.77;;;3.37;;
4508;SDS011;2267;48.816;9.230;2023-11-18T17:44:58;4.43;;;4.03;;
4508;SDS011;2267;48.816;9.230;2023-11-18T17:47:31;4.23;;;3.83;;
4508;SDS011;2267;48.816;9.230;2023-11-18T17:50:01;4.93;;;4.43;;
4508;SDS011;2267;48.816;9.230;2023-11-18T17:52:29;4.10;;;3.70;;
4508;SDS011;2267;48.816;9.230;2023-11-18T17:54:56;3.63;;;3.30;;
4508;SDS011;2267;48.816;9.230;2023-11-18T17:57:22;5.40;;;3.90;;
4508;SDS011;2267;48.816;9.230;2023-11-18T17:59:49;4.20;;;3.53;;
4508;SDS011;2267;48.816;9.230;2023-11-18T18:02:19;7.37;;;5.67;;
4508;SDS011;2267;48.816;9.230;2023-11-18T18:04:46;7.60;;;6.37;;
4508;SDS011;2267;48.816;9.230;2023-11-18T18:07:13;6.13;;;5.23;;
4508;SDS011;2267;48.816;9.230;2023-11-18T18:09:40;6.17;;;5.40;;
4508;SDS011;2267;48.816;9.230;2023-11-18T18:12:09;6.33;;;5.70;;
4508;SDS011;2267;48.816;9.230;2023-11-18T18:14:36;4.70;;;3.43;;
4508;SDS011;2267;48.816;9.230;2023-11-18T18:17:04;5.80;;;4.93;;
4508;SDS011;2267;48.816;9.230;2023-11-18T18:19:32;5.17;;;4.67;;
4508;SDS011;2267;48.816;9.230;2023-11-18T18:22:00;4.40;;;3.97;;
4508;SDS011;2267;48.816;9.230;2023-11-18T18:24:26;4.77;;;3.90;;
4508;SDS011;2267;48.816;9.230;2023-11-18T18:26:53;3.27;;;2.97;;
4508;SDS011;2267;48.816;9.230;2023-11-18T18:29:21;3.80;;;3.30;;
4508;SDS011;2267;48.816;9.230;2023-11-18T18:31:47;3.80;;;3.40;;
4508;SDS011;2267;48.816;9.230;2023-11-18T18:34:14;3.80;;;3.47;;
4508;SDS011;2267;48.816;9.230;2023-11-18T18:36:41;3.90;;;3.27;;
4508;SDS011;2267;48.816;9.230;2023-11-18T18:39:08;4.37;;;3.90;;
4508;SDS011;2267;48.816;9.230;2023-11-18T18:41:35;4.93;;;4.43;;
4508;SDS011;2267;48.816;9.230;2023-11-18T18:44:02;4.83;;;4.43;;
4508;SDS011;2267;48.816;9.230;2023-11-18T18:46:29;4.73;;;4.33;;
4508;SDS011;2267;48.816;9.230;2023-11-18T18:48:55;5.33;;;4.40;;
4508;SDS011;2267;48.816;9.230;2023-11-18T18:51:22;4.43;;;4.03;;
4508;SDS011;2267;48.816;9.230;2023-11-18T18:53:49;5.07;;;4.27;;
4508;SDS011;2267;48.816;9.230;2023-11-18T18:56:16;5.93;;;5.33;;
4508;SDS011;2267;48.816;9.230;2023-11-18T18:58:43;8.00;;;5.30;;
4508;SDS011;2267;48.816;9.230;2023-11-18T19:01:29;5.90;;;5.40;;
4508;SDS011;2267;48.816;9.230;2023-11-18T19:03:56;4.37;;;3.97;;
4508;SDS011;2267;48.816;9.230;2023-11-18T19:06:23;4.30;;;4.00;;
4508;SDS011;2267;48.816;9.230;2023-11-18T19:08:50;5.00;;;4.60;;
4508;SDS011;2267;48.816;9.230;2023-11-18T19:11:17;5.10;;;4.67;;
4508;SDS011;2267;48.816;9.230;2023-11-18T19:13:44;6.50;;;5.93;;
4508;SDS011;2267;48.816;9.230;2023-11-18T19:16:11;5.70;;;5.17;;
4508;SDS011;2267;48.816;9.230;2023-11-18T19:18:37;6.03;;;5.43;;
4508;SDS011;2267;48.816;9.230;2023-11-18T19:21:04;5.93;;;5.43;;
4508;SDS011;2267;48.816;9.230;2023-11-18T19:23:31;6.50;;;5.97;;
4508;SDS011;2267;48.816;9.230;2023-11-18T19:25:59;7.70;;;6.90;;
4508;SDS011;2267;48.816;9.230;2023-11-18T19:28:25;7.53;;;6.80;;
4508;SDS011;2267;48.816;9.230;2023-11-18T19:30:52;6.00;;;5.43;;
4508;SDS011;2267;48.816;9.230;2023-11-18T19:33:19;6.30;;;5.80;;
4508;SDS011;2267;48.816;9.230;2023-11-18T19:35:46;5.17;;;4.70;;
4508;SDS011;2267;48.816;9.230;2023-11-18T19:38:13;5.83;;;5.33;;
4508;SDS011;2267;48.816;9.230;2023-11-18T19:40:40;5.80;;;5.20;;
4508;SDS011;2267;48.816;9.230;2023-11-18T19:43:06;6.20;;;5.70;;
4508;SDS011;2267;48.816;9.230;2023-11-18T19:45:35;5.80;;;5.30;;
4508;SDS011;2267;48.816;9.230;2023-11-18T19:48:02;5.67;;;5.17;;
4508;SDS011;2267;48.816;9.230;2023-11-18T19:50:29;6.43;;;5.70;;
4508;SDS011;2267;48.816;9.230;2023-11-18T19:52:56;5.40;;;5.00;;
4508;SDS011;2267;48.816;9.230;2023-11-18T19:55:22;5.80;;;5.20;;
4508;SDS011;2267;48.816;9.230;2023-11-18T19:57:49;6.30;;;5.70;;
4508;SDS011;2267;48.816;9.230;2023-11-18T20:00:16;5.90;;;5.40;;
4508;SDS011;2267;48.816;9.230;2023-11-18T20:02:44;7.20;;;6.60;;
4508;SDS011;2267;48.816;9.230;2023-11-18T20:05:11;8.60;;;7.80;;
4508;SDS011;2267;48.816;9.230;2023-11-18T20:07:39;6.50;;;6.00;;
4508;SDS011;2267;48.816;9.230;2023-11-18T20:10:07;8.80;;;8.00;;
4508;SDS011;2267;48.816;9.230;2023-11-18T20:12:35;7.43;;;6.80;;
4508;SDS011;2267;48.816;9.230;2023-11-18T20:15:02;7.03;;;6.43;;
4508;SDS011;2267;48.816;9.230;2023-11-18T20:17:30;6.90;;;6.20;;
4508;SDS011;2267;48.816;9.230;2023-11-18T20:19:58;6.60;;;6.10;;
4508;SDS011;2267;48.816;9.230;2023-11-18T20:22:26;6.33;;;5.83;;
4508;SDS011;2267;48.816;9.230;2023-11-18T20:24:53;6.50;;;6.00;;
4508;SDS011;2267;48.816;9.230;2023-11-18T20:27:20;6.40;;;5.90;;
4508;SDS011;2267;48.816;9.230;2023-11-18T20:29:47;6.60;;;6.10;;
4508;SDS011;2267;48.816;9.230;2023-11-18T20:32:14;6.90;;;6.30;;
4508;SDS011;2267;48.816;9.230;2023-11-18T20:34:41;7.57;;;6.97;;
4508;SDS011;2267;48.816;9.230;2023-11-18T20:37:08;8.23;;;7.43;;
4508;SDS011;2267;48.816;9.230;2023-11-18T20:39:35;7.60;;;6.90;;
4508;SDS011;2267;48.816;9.230;2023-11-18T20:42:04;6.80;;;6.27;;
4508;SDS011;2267;48.816;9.230;2023-11-18T20:44:31;8.00;;;7.30;;
4508;SDS011;2267;48.816;9.230;2023-11-18T20:47:01;7.77;;;7.17;;
4508;SDS011;2267;48.816;9.230;2023-11-18T20:49:28;8.60;;;7.83;;
4508;SDS011;2267;48.816;9.230;2023-11-18T20:51:55;8.13;;;7.43;;
4508;SDS011;2267;48.816;9.230;2023-11-18T20:54:23;6.83;;;6.23;;
4508;SDS011;2267;48.816;9.230;2023-11-18T20:56:51;8.47;;;7.77;;
4508;SDS011;2267;48.816;9.230;2023-11-18T20:59:18;7.03;;;6.53;;
4508;SDS011;2267;48.816;9.230;2023-11-18T21:01:46;5.90;;;5.50;;
4508;SDS011;2267;48.816;9.230;2023-11-18T21:04:13;7.10;;;6.37;;
4508;SDS011;2267;48.816;9.230;2023-11-18T21:06:42;6.73;;;6.13;;
4508;SDS011;2267;48.816;9.230;2023-11-18T21:09:08;5.83;;;5.33;;
4508;SDS011;2267;48.816;9.230;2023-11-18T21:11:35;5.90;;;5.50;;
4508;SDS011;2267;48.816;9.230;2023-11-18T21:14:02;6.00;;;5.50;;
4508;SDS011;2267;48.816;9.230;2023-11-18T21:16:30;8.33;;;6.00;;
4508;SDS011;2267;48.816;9.230;2023-11-18T21:18:58;8.10;;;6.40;;
4508;SDS011;2267;48.816;9.230;2023-11-18T21:21:27;13.07;;;11.67;;
4508;SDS011;2267;48.816;9.230;2023-11-18T21:23:54;13.87;;;12.47;;
4508;SDS011;2267;48.816;9.230;2023-11-18T21:26:21;13.60;;;12.13;;
4508;SDS011;2267;48.816;9.230;2023-11-18T21:28:51;12.67;;;7.73;;
4508;SDS011;2267;48.816;9.230;2023-11-18T21:31:17;5.43;;;4.93;;
4508;SDS011;2267;48.816;9.230;2023-11-18T21:33:44;4.90;;;4.30;;
4508;SDS011;2267;48.816;9.230;2023-11-18T21:36:11;5.80;;;5.07;;
4508;SDS011;2267;48.816;9.230;2023-11-18T21:38:40;4.10;;;3.70;;
4508;SDS011;2267;48.816;9.230;2023-11-18T21:41:07;4.47;;;4.17;;
4508;SDS011;2267;48.816;9.230;2023-11-18T21:43:34;4.40;;;4.00;;
4508;SDS011;2267;48.816;9.230;2023-11-18T21:46:02;4.70;;;4.30;;
4508;SDS011;2267;48.816;9.230;2023-11-18T21:48:29;4.73;;;4.33;;
4508;SDS011;2267;48.816;9.230;2023-11-18T21:50:57;4.50;;;4.10;;
4508;SDS011;2267;48.816;9.230;2023-11-18T21:53:23;4.30;;;4.00;;
4508;SDS011;2267;48.816;9.230;2023-11-18T21:55:54;3.90;;;3.60;;
4508;SDS011;2267;48.816;9.230;2023-11-18T21:58:21;3.67;;;3.37;;
4508;SDS011;2267;48.816;9.230;2023-11-18T22:00:50;4.00;;;3.60;;
4508;SDS011;2267;48.816;9.230;2023-11-18T22:03:17;4.47;;;3.53;;
4508;SDS011;2267;48.816;9.230;2023-11-18T22:05:45;3.90;;;3.60;;
4508;SDS011;2267;48.816;9.230;2023-11-18T22:08:13;3.80;;;3.27;;
4508;SDS011;2267;48.816;9.230;2023-11-18T22:10:48;4.07;;;3.67;;
4508;SDS011;2267;48.816;9.230;2023-11-18T22:13:15;3.57;;;3.27;;
4508;SDS011;2267;48.816;9.230;2023-11-18T22:15:42;3.90;;;3.60;;
4508;SDS011;2267;48.816;9.230;2023-11-18T22:18:09;4.20;;;3.83;;
4508;SDS011;2267;48.816;9.230;2023-11-18T22:20:36;5.30;;;4.90;;
4508;SDS011;2267;48.816;9.230;2023-11-18T22:23:04;5.43;;;4.27;;
4508;SDS011;2267;48.816;9.230;2023-11-18T22:25:32;3.80;;;3.50;;
4508;SDS011;2267;48.816;9.230;2023-11-18T22:27:59;3.83;;;3.30;;
4508;SDS011;2267;48.816;9.230;2023-11-18T22:30:29;3.33;;;3.03;;
4508;SDS011;2267;48.816;9.230;2023-11-18T22:32:56;3.90;;;3.60;;
4508;SDS011;2267;48.816;9.230;2023-11-18T22:35:26;3.10;;;2.90;;
4508;SDS011;2267;48.816;9.230;2023-11-18T22:37:54;3.83;;;3.33;;
4508;SDS011;2267;48.816;9.230;2023-11-18T22:40:26;3.90;;;3.60;;
4508;SDS011;2267;48.816;9.230;2023-11-18T22:42:53;3.33;;;3.13;;
4508;SDS011;2267;48.816;9.230;2023-11-18T22:45:20;3.80;;;3.50;;
4508;SDS011;2267;48.816;9.230;2023-11-18T22:47:49;4.37;;;3.97;;
4508;SDS011;2267;48.816;9.230;2023-11-18T22:50:17;4.47;;;4.07;;
4508;SDS011;2267;48.816;9.230;2023-11-18T22:52:44;3.60;;;3.30;;
4508;SDS011;2267;48.816;9.230;2023-11-18T22:55:12;3.83;;;3.53;;
4508;SDS011;2267;48.816;9.230;2023-11-18T22:57:42;3.17;;;2.87;;
4508;SDS011;2267;48.816;9.230;2023-11-18T23:00:09;3.73;;;3.43;;
4508;SDS011;2267;48.816;9.230;2023-11-18T23:02:55;3.00;;;2.80;;
4508;SDS011;2267;48.816;9.230;2023-11-18T23:05:22;3.60;;;2.80;;
4508;SDS011;2267;48.816;9.230;2023-11-18T23:07:52;3.67;;;3.20;;
4508;SDS011;2267;48.816;9.230;2023-11-18T23:10:19;3.83;;;2.80;;
4508;SDS011;2267;48.816;9.230;2023-11-18T23:12:46;3.50;;;3.20;;
4508;SDS011;2267;48.816;9.230;2023-11-18T23:15:13;3.43;;;3.13;;
4508;SDS011;2267;48.816;9.230;2023-11-18T23:17:42;2.60;;;2.40;;
4508;SDS011;2267;48.816;9.230;2023-11-18T23:20:09;3.27;;;2.90;;
4508;SDS011;2267;48.816;9.230;2023-11-18T23:22:37;3.37;;;3.07;;
4508;SDS011;2267;48.816;9.230;2023-11-18T23:25:04;3.40;;;3.10;;
4508;SDS011;2267;48.816;9.230;2023-11-18T23:27:31;3.53;;;3.23;;
4508;SDS011;2267;48.816;9.230;2023-11-18T23:29:58;3.57;;;3.27;;
4508;SDS011;2267;48.816;9.230;2023-11-18T23:32:25;4.40;;;2.97;;
4508;SDS011;2267;48.816;9.230;2023-11-18T23:34:52;3.20;;;3.00;;
4508;SDS011;2267;48.816;9.230;2023-11-18T23:37:19;2.80;;;2.60;;
4508;SDS011;2267;48.816;9.230;2023-11-18T23:39:46;4.20;;;3.90;;
4508;SDS011;2267;48.816;9.230;2023-11-18T23:42:14;3.00;;;2.80;;
4508;SDS011;2267;48.816;9.230;2023-11-18T23:44:42;3.50;;;3.20;;
4508;SDS011;2267;48.816;9.230;2023-11-18T23:47:09;2.80;;;2.60;;
4508;SDS011;2267;48.816;9.230;2023-11-18T23:49:36;3.33;;;3.03;;
4508;SDS011;2267;48.816;9.230;2023-11-18T23:52:03;2.50;;;2.30;;
4508;SDS011;2267;48.816;9.230;2023-11-18T23:54:32;5.13;;;2.97;;
4508;SDS011;2267;48.816;9.230;2023-11-18T23:57:00;3.50;;;2.67;;
4508;SDS011;2267;48.816;9.230;2023-11-18T23:59:26;3.40;;;3.10;;
